Time;durP1;ratioP1;P1;durP2;ratioP2;P2;SDS_P1;SDS_P2;PMS_P1;PMS_P2;Temp;Humidity;BMP_temperature;BMP_pressure;BME280_temperature;BME280_humidity;BME280_pressure;Samples;Min_cycle;Max_cycle;Signal;HPM_P1;HPM_P2
2022/09/10 00:03:36;;;;;;;1999.90;999.90;;;;;;;14.29;95.31;99055.25;8310520;28;20034;-77
2022/09/10 00:07:38;;;;;;;1999.90;999.90;;;;;;;14.28;95.92;99056.13;8291370;28;20103;-77
2022/09/10 00:11:40;;;;;;;1999.90;999.90;;;;;;;14.26;96.36;99063.16;8310655;28;20082;-77
2022/09/10 00:15:45;;;;;;;1999.90;999.90;;;;;;;14.23;96.64;99056.25;8295241;28;20058;-77
2022/09/10 00:19:46;;;;;;;1999.90;999.90;;;;;;;14.21;97.35;99051.06;8292729;28;20041;-77
2022/09/10 00:23:48;;;;;;;1999.90;999.90;;;;;;;14.21;96.77;99055.44;8307420;28;20096;-77
2022/09/10 00:27:50;;;;;;;1999.90;999.90;;;;;;;14.20;96.60;99061.56;8287288;28;20053;-77
2022/09/10 00:31:59;;;;;;;;;;;;;;;14.26;96.60;99050.94;8273141;28;20295;-77
2022/09/10 00:36:04;;;;;;;1999.90;999.90;;;;;;;14.28;96.39;99048.31;8311483;28;20321;-77
2022/09/10 00:40:13;;;;;;;1999.90;999.90;;;;;;;14.29;96.18;99045.66;8295078;28;20045;-77
2022/09/10 00:44:36;;;;;;;1999.90;999.90;;;;;;;14.27;95.95;99051.81;8286467;28;20454;-76
2022/09/10 00:48:45;;;;;;;1999.90;999.90;;;;;;;14.29;96.14;99053.47;8291495;28;20666;-76
2022/09/10 00:52:48;;;;;;;1999.90;999.90;;;;;;;14.26;95.71;99050.94;8286180;28;20115;-76
2022/09/10 00:56:52;;;;;;;1999.90;999.90;;;;;;;14.26;96.27;99045.72;8292444;28;20053;-76
2022/09/10 01:01:00;;;;;;;1999.90;999.90;;;;;;;14.30;96.05;99046.50;8287128;28;20096;-77
2022/09/10 01:05:16;;;;;;;1999.90;999.90;;;;;;;14.29;95.90;99040.41;8229853;28;20058;-76
2022/09/10 01:09:20;;;;;;;1999.90;999.90;;;;;;;14.26;96.15;99043.13;8219708;28;20074;-76
2022/09/10 01:13:43;;;;;;;1999.90;999.90;;;;;;;14.28;96.18;99041.31;8218611;28;20142;-77
2022/09/10 01:18:02;;;;;;;1999.90;999.90;;;;;;;14.29;96.31;99055.25;8217221;28;20098;-76
2022/09/10 01:22:40;;;;;;;1999.90;999.90;;;;;;;14.31;96.29;99051.69;8205790;28;20043;-77
2022/09/10 01:27:03;;;;;;;1999.90;999.90;;;;;;;14.33;96.35;99046.41;8225066;28;20133;-77
2022/09/10 01:31:22;;;;;;;1999.90;999.90;;;;;;;14.36;96.29;99057.69;8228600;28;20094;-77
2022/09/10 01:35:29;;;;;;;1999.90;999.90;;;;;;;14.35;96.63;99058.53;8241609;28;20441;-77
2022/09/10 01:39:38;;;;;;;1999.90;999.90;;;;;;;14.36;96.17;99055.06;8310072;28;20049;-77
2022/09/10 01:43:40;;;;;;;1999.90;999.90;;;;;;;14.38;96.19;99053.25;8301545;28;20661;-77
2022/09/10 01:47:51;;;;;;;1999.90;999.90;;;;;;;14.40;96.03;99051.47;8317359;28;20064;-77
2022/09/10 01:52:17;;;;;;;1999.90;999.90;;;;;;;14.43;96.17;99048.81;8328138;28;20103;-77
2022/09/10 01:56:48;;;;;;;1999.90;999.90;;;;;;;14.47;96.09;99041.75;8278955;28;20041;-77
2022/09/10 02:01:13;;;;;;;1999.90;999.90;;;;;;;14.48;96.34;99043.47;8295579;28;20067;-77
2022/09/10 02:05:18;;;;;;;1999.90;999.90;;;;;;;14.48;95.96;99043.47;8295355;28;20115;-77
2022/09/10 02:09:20;;;;;;;1999.90;999.90;;;;;;;14.47;95.96;99045.22;8323594;28;20944;-77
2022/09/10 02:13:22;;;;;;;1999.90;999.90;;;;;;;14.46;95.98;99040.03;8282527;28;20088;-77
2022/09/10 02:17:32;;;;;;;1999.90;999.90;;;;;;;14.50;96.24;99044.28;8327659;28;20594;-77
2022/09/10 02:21:40;;;;;;;1999.90;999.90;;;;;;;14.50;96.39;99037.28;8309092;28;20046;-77
2022/09/10 02:25:41;;;;;;;1999.90;999.90;;;;;;;14.50;96.82;99041.66;8327304;28;20041;-77
2022/09/10 02:29:42;;;;;;;1999.90;999.90;;;;;;;14.49;97.02;99045.16;8323205;28;20620;-77
2022/09/10 02:33:50;;;;;;;1999.90;999.90;;;;;;;14.50;96.71;99037.28;8302842;28;20115;-77
2022/09/10 02:37:52;;;;;;;1999.90;999.90;;;;;;;14.51;96.45;99038.16;8303938;28;20441;-77
2022/09/10 02:41:54;;;;;;;1999.90;999.90;;;;;;;14.52;96.50;99037.25;8317967;28;20045;-77
2022/09/10 02:45:57;;;;;;;1999.90;999.90;;;;;;;14.49;96.39;99040.81;8325425;28;20041;-77
2022/09/10 02:50:00;;;;;;;1999.90;999.90;;;;;;;14.44;96.54;99034.84;8303558;28;20945;-77
2022/09/10 02:54:02;;;;;;;1999.90;999.90;;;;;;;14.39;96.65;99038.44;8331890;28;20713;-77
2022/09/10 02:58:03;;;;;;;1999.90;999.90;;;;;;;14.36;96.75;99041.13;8296116;28;20076;-77
2022/09/10 03:02:12;;;;;;;1999.90;999.90;;;;;;;14.37;96.66;99032.41;8303320;28;20291;-77
2022/09/10 03:06:13;;;;;;;1999.90;999.90;;;;;;;14.40;97.07;99035.78;8302340;28;20107;-77
2022/09/10 03:10:23;;;;;;;1999.90;999.90;;;;;;;14.41;96.70;99036.66;8318280;28;20501;-77
2022/09/10 03:14:24;;;;;;;1999.90;999.90;;;;;;;14.41;96.59;99032.28;8299249;28;20092;-77
2022/09/10 03:18:29;;;;;;;1999.90;999.90;;;;;;;14.42;96.68;99035.75;8318124;28;20140;-77
2022/09/10 03:22:31;;;;;;;1999.90;999.90;;;;;;;14.42;96.79;99035.75;8287215;28;20064;-77
2022/09/10 03:26:38;;;;;;;1999.90;999.90;;;;;;;14.39;96.71;99039.31;8315051;28;20541;-77
2022/09/10 03:30:46;;;;;;;1999.90;999.90;;;;;;;14.40;96.65;99038.41;8317604;28;20045;-77
2022/09/10 03:35:02;;;;;;;1999.90;999.90;;;;;;;14.45;97.00;99044.41;8304425;28;20445;-77
2022/09/10 03:39:03;;;;;;;1999.90;999.90;;;;;;;14.48;96.99;99040.84;8313199;28;20314;-77
2022/09/10 03:43:11;;;;;;;1999.90;999.90;;;;;;;14.51;96.55;99040.75;8299030;28;20091;-77
2022/09/10 03:47:13;;;;;;;1999.90;999.90;;;;;;;14.54;96.52;99047.66;8298834;28;20041;-77
2022/09/10 03:51:22;;;;;;;1999.90;999.90;;;;;;;14.54;96.57;99043.28;8316843;28;20049;-77
2022/09/10 03:55:30;;;;;;;1999.90;999.90;;;;;;;14.53;96.68;99052.03;8287382;28;20059;-77
2022/09/10 03:59:40;;;;;;;1999.90;999.90;;;;;;;14.55;96.78;99036.34;8320548;28;20060;-78
2022/09/10 04:03:48;;;;;;;1999.90;999.90;;;;;;;14.56;96.96;99045.88;8298643;28;20079;-76
2022/09/10 04:07:58;;;;;;;1999.90;999.90;;;;;;;14.54;96.68;99042.44;8321333;28;20091;-77
2022/09/10 04:12:00;;;;;;;1999.90;999.90;;;;;;;14.54;97.20;99039.81;8322435;28;20041;-78
2022/09/10 04:16:08;;;;;;;1999.90;999.90;;;;;;;14.54;97.06;99032.84;8286012;28;20041;-78
2022/09/10 04:20:10;;;;;;;1999.90;999.90;;;;;;;14.56;97.04;99038.91;8298543;28;20045;-77
2022/09/10 04:24:19;;;;;;;1999.90;999.90;;;;;;;14.61;96.81;99041.41;8279194;28;20046;-77
2022/09/10 04:28:27;;;;;;;1999.90;999.90;;;;;;;14.64;96.60;99042.16;8322314;28;20824;-77
2022/09/10 04:32:35;;;;;;;1999.90;999.90;;;;;;;14.65;96.34;99040.41;8274892;28;20065;-78
2022/09/10 04:36:50;;;;;;;1999.90;999.90;;;;;;;14.65;96.13;99028.19;8303583;28;20526;-78
2022/09/10 04:40:59;;;;;;;1999.90;999.90;;;;;;;14.62;96.28;99038.75;8296327;28;20132;-77
2022/09/10 04:45:01;;;;;;;1999.90;999.90;;;;;;;14.57;96.31;99032.78;8302856;28;20045;-78
2022/09/10 04:49:09;;;;;;;1999.90;999.90;;;;;;;14.51;96.60;99038.16;8298115;28;20068;-77
2022/09/10 04:53:18;;;;;;;1999.90;999.90;;;;;;;14.57;97.21;99047.59;8293764;28;20045;-77
2022/09/10 04:57:21;;;;;;;1999.90;999.90;;;;;;;14.62;96.70;99045.72;8297140;28;20045;-78
2022/09/10 05:01:30;;;;;;;1999.90;999.90;;;;;;;14.62;96.59;99053.56;8315782;28;20095;-78
2022/09/10 05:05:31;;;;;;;;;;;;;;;14.64;96.68;99051.75;8319611;28;20044;-78
2022/09/10 05:09:40;;;;;;;1999.90;999.90;;;;;;;14.65;96.34;99059.56;8324945;28;19929;-78
2022/09/10 05:13:48;;;;;;;1999.90;999.90;;;;;;;14.65;96.23;99054.34;8283661;28;20041;-78
2022/09/10 05:17:49;;;;;;;1999.90;999.90;;;;;;;14.69;96.11;99066.41;8293533;28;20053;-78
2022/09/10 05:21:58;;;;;;;1999.90;999.90;;;;;;;14.72;96.52;99055.91;8301093;28;20466;-77
2022/09/10 05:25:59;;;;;;;1999.90;999.90;;;;;;;14.72;96.34;99055.91;8318035;28;20049;-78
2022/09/10 05:30:07;;;;;;;1999.90;999.90;;;;;;;14.75;96.01;99061.03;8280780;28;20599;-78
2022/09/10 05:34:16;;;;;;;1999.90;999.90;;;;;;;14.78;95.87;99060.94;8283350;28;20053;-77
2022/09/10 05:38:25;;;;;;;1999.90;999.90;;;;;;;14.75;95.69;99065.41;8316615;28;20505;-78
2022/09/10 05:42:35;;;;;;;1999.90;999.90;;;;;;;14.78;95.45;99067.94;8298494;28;20425;-77
2022/09/10 05:46:43;;;;;;;1999.90;999.90;;;;;;;14.79;94.90;99069.66;8297602;28;20114;-77
2022/09/10 05:50:51;;;;;;;1999.90;999.90;;;;;;;14.78;94.75;99071.41;8314669;28;20827;-77
2022/09/10 05:54:59;;;;;;;1999.90;999.90;;;;;;;14.81;94.72;99075.69;8298567;28;20042;-78
2022/09/10 05:59:07;;;;;;;1999.90;999.90;;;;;;;14.86;94.24;99078.19;8316219;28;20064;-77
2022/09/10 06:03:09;;;;;;;1999.90;999.90;;;;;;;14.90;94.08;99090.25;8315474;28;20050;-77
2022/09/10 06:07:17;;;;;;;1999.90;999.90;;;;;;;14.91;93.91;99092.00;8299738;28;20046;-78
2022/09/10 06:11:25;;;;;;;1999.90;999.90;;;;;;;14.90;93.56;99090.25;8281535;28;20037;-77
2022/09/10 06:15:34;;;;;;;1999.90;999.90;;;;;;;14.91;93.45;99092.88;8307926;28;20042;-77
2022/09/10 06:19:36;;;;;;;1999.90;999.90;;;;;;;14.94;93.47;99094.53;8318804;28;20045;-78
2022/09/10 06:23:45;;;;;;;1999.90;999.90;;;;;;;14.95;93.43;99093.63;8303998;28;20587;-78
2022/09/10 06:27:54;;;;;;;1999.90;999.90;;;;;;;15.05;93.26;99101.16;8322965;28;20771;-78
2022/09/10 06:32:02;;;;;;;1999.90;999.90;;;;;;;15.14;92.77;99100.06;8264420;28;20583;-78
2022/09/10 06:36:16;;;;;;;1999.90;999.90;;;;;;;15.19;92.32;99099.94;8291909;28;20105;-78
2022/09/10 06:40:18;;;;;;;1999.90;999.90;;;;;;;15.21;91.90;99104.22;8305105;28;20107;-77
2022/09/10 06:44:28;;;;;;;1999.90;999.90;;;;;;;15.23;90.63;99101.56;8334507;28;20718;-78
2022/09/10 06:48:30;;;;;;;1999.90;999.90;;;;;;;15.34;90.35;99096.91;8333363;28;20131;-78
2022/09/10 06:52:48;;;;;;;1999.90;999.90;;;;;;;15.46;90.82;99116.63;8333559;28;20041;-78
2022/09/10 06:56:57;;;;;;;1999.90;999.90;;;;;;;15.47;89.63;99111.34;8335791;28;20059;-78
2022/09/10 07:01:10;;;;;;;1999.90;999.90;;;;;;;15.48;89.89;99123.53;8332202;28;20061;-77
2022/09/10 07:05:14;;;;;;;1999.90;999.90;;;;;;;15.45;88.98;99120.16;8331459;28;20380;-78
2022/09/10 07:09:22;;;;;;;1999.90;999.90;;;;;;;15.47;89.28;99127.06;8345789;28;20107;-78
2022/09/10 07:13:30;;;;;;;1999.90;999.90;;;;;;;15.45;88.73;99125.38;8332135;28;20037;-77
2022/09/10 07:17:39;;;;;;;1999.90;999.90;;;;;;;15.45;89.10;99123.63;8345114;28;20578;-77
2022/09/10 07:21:47;;;;;;;1999.90;999.90;;;;;;;15.47;88.74;99123.59;8324418;28;20458;-79
2022/09/10 07:26:02;;;;;;;1999.90;999.90;;;;;;;15.51;88.86;99130.44;8329199;28;20053;-80
2022/09/10 07:30:04;;;;;;;1999.90;999.90;;;;;;;15.57;88.47;99127.63;8349324;28;20040;-79
2022/09/10 07:34:12;;;;;;;1999.90;999.90;;;;;;;15.55;88.54;99140.75;8309118;28;20052;-78
2022/09/10 07:38:27;;;;;;;1999.90;999.90;;;;;;;15.58;88.50;99145.91;8304929;28;20040;-79
2022/09/10 07:42:36;;;;;;;1999.90;999.90;;;;;;;15.67;89.10;99152.69;8342525;28;20103;-80
2022/09/10 07:46:45;;;;;;;1999.90;999.90;;;;;;;15.71;88.42;99152.53;8325274;28;20045;-79
2022/09/10 07:50:47;;;;;;;1999.90;999.90;;;;;;;15.75;88.30;99155.06;8332381;28;20053;-79
2022/09/10 07:54:57;;;;;;;1999.90;999.90;;;;;;;15.77;87.88;99161.09;8325833;28;20103;-78
2022/09/10 07:58:58;;;;;;;1999.90;999.90;;;;;;;15.81;87.78;99154.91;8324580;28;20106;-78
2022/09/10 08:03:06;;;;;;;1999.90;999.90;;;;;;;15.82;87.23;99154.00;8322830;28;20130;-78
2022/09/10 08:07:16;;;;;;;1999.90;999.90;;;;;;;15.90;87.61;99162.47;8346152;28;20037;-78
2022/09/10 08:11:24;;;;;;;1999.90;999.90;;;;;;;16.05;87.56;99164.66;8353528;28;20041;-77
2022/09/10 08:15:33;;;;;;;1999.90;999.90;;;;;;;16.27;86.52;99157.84;8317530;28;20038;-78
2022/09/10 08:19:35;;;;;;;1999.90;999.90;;;;;;;16.49;85.78;99165.00;8324671;28;20472;-77
2022/09/10 08:23:51;;;;;;;1999.90;999.90;;;;;;;16.58;84.94;99159.50;8326094;28;20086;-77
2022/09/10 08:27:53;;;;;;;1999.90;999.90;;;;;;;16.55;84.75;99168.31;8324938;28;20094;-77
2022/09/10 08:32:01;;;;;;;1999.90;999.90;;;;;;;16.45;84.44;99176.50;8363173;28;20036;-77
2022/09/10 08:36:04;;;;;;;1999.90;999.90;;;;;;;16.46;85.27;99186.06;8339308;28;20815;-78
2022/09/10 08:40:13;;;;;;;1999.90;999.90;;;;;;;16.33;85.05;99181.22;8324063;28;20470;-77
2022/09/10 08:44:49;;;;;;;1999.90;999.90;;;;;;;16.31;85.47;99190.03;8322455;28;21010;-77
2022/09/10 08:49:16;;;;;;;1999.90;999.90;;;;;;;16.26;86.25;99184.09;8323670;28;20042;-75
2022/09/10 08:53:50;;;;;;;1999.90;999.90;;;;;;;16.15;86.06;99184.41;8327773;28;20427;-76
2022/09/10 08:58:14;;;;;;;1999.90;999.90;;;;;;;16.09;86.10;99181.13;8327549;28;20520;-77
2022/09/10 09:02:38;;;;;;;1999.90;999.90;;;;;;;15.99;85.79;99181.41;8342110;28;20481;-77
2022/09/10 09:06:55;;;;;;;1999.90;999.90;;;;;;;15.90;84.99;99193.91;8339056;28;20793;-77
2022/09/10 09:11:24;;;;;;;1999.90;999.90;;;;;;;15.94;85.93;99196.38;8343999;28;20041;-77
2022/09/10 09:15:40;;;;;;;1999.90;999.90;;;;;;;15.93;86.31;99204.28;8326741;28;20410;-77
2022/09/10 09:19:55;;;;;;;1999.90;999.90;;;;;;;16.06;87.18;99212.66;8323826;28;20128;-77
2022/09/10 09:24:16;;;;;;;1999.90;999.90;;;;;;;16.02;87.58;99207.50;8344115;28;20426;-77
2022/09/10 09:28:32;;;;;;;1999.90;999.90;;;;;;;16.06;88.44;99204.78;8310468;28;20048;-77
2022/09/10 09:32:44;;;;;;;1999.90;999.90;;;;;;;16.13;88.26;99203.69;8322991;28;20131;-77
2022/09/10 09:36:55;;;;;;;1999.90;999.90;;;;;;;16.12;87.72;99208.06;8302062;28;20131;-75
2022/09/10 09:41:25;;;;;;;1999.90;999.90;;;;;;;16.01;87.07;99210.16;8313937;28;20041;-77
2022/09/10 09:45:36;;;;;;;1999.90;999.90;;;;;;;15.96;87.07;99212.91;8306738;28;20041;-76
2022/09/10 09:49:44;;;;;;;1999.90;999.90;;;;;;;15.93;88.03;99220.00;8294094;28;20099;-75
2022/09/10 09:53:59;;;;;;;1999.90;999.90;;;;;;;15.95;88.80;99218.19;8308777;28;20045;-77
2022/09/10 09:58:20;;;;;;;1999.90;999.90;;;;;;;15.85;88.72;99224.59;8291334;28;20050;-77
2022/09/10 10:02:29;;;;;;;1999.90;999.90;;;;;;;15.84;89.73;99222.88;8288651;28;20037;-76
2022/09/10 10:06:46;;;;;;;1999.90;999.90;;;;;;;15.95;91.08;99229.50;8285260;28;20099;-76
2022/09/10 10:10:51;;;;;;;1999.90;999.90;;;;;;;16.02;91.43;99224.97;8305208;28;20119;-76
2022/09/10 10:15:01;;;;;;;1999.90;999.90;;;;;;;16.10;92.52;99228.22;8304468;28;20052;-76
2022/09/10 10:19:28;;;;;;;1999.90;999.90;;;;;;;16.15;92.50;99222.84;8299584;28;20540;-76
2022/09/10 10:23:35;;;;;;;1999.90;999.90;;;;;;;16.22;92.56;99221.75;8301204;28;20091;-77
2022/09/10 10:27:44;;;;;;;1999.90;999.90;;;;;;;16.28;92.87;99218.94;8285168;28;20042;-77
2022/09/10 10:31:47;;;;;;;;;;;;;;;16.22;92.00;99222.63;8287107;28;20049;-77
2022/09/10 10:36:08;;;;;;;1999.90;999.90;;;;;;;16.24;92.40;99225.19;8296571;28;19956;-77
2022/09/10 10:40:35;;;;;;;1999.90;999.90;;;;;;;16.23;91.89;99226.97;8320217;28;20138;-77
2022/09/10 10:45:07;;;;;;;1999.90;999.90;;;;;;;16.29;91.87;99224.13;8318929;28;20047;-76
2022/09/10 10:49:24;;;;;;;1999.90;999.90;;;;;;;16.39;92.23;99226.50;8319169;28;20115;-77
2022/09/10 10:54:17;;;;;;;1999.90;999.90;;;;;;;16.43;91.75;99220.25;8341465;28;20041;-77
2022/09/10 10:58:36;;;;;;;1999.90;999.90;;;;;;;16.51;91.60;99220.84;8324944;28;20052;-77
2022/09/10 11:02:49;;;;;;;1999.90;999.90;;;;;;;16.45;91.12;99214.06;8339997;28;20069;-77
2022/09/10 11:07:12;;;;;;;1999.90;999.90;;;;;;;16.45;91.42;99218.44;8324542;28;20495;-77
2022/09/10 11:12:07;;;;;;;1999.90;999.90;;;;;;;16.47;91.77;99212.22;8324638;28;20037;-77
2022/09/10 11:16:22;;;;;;;1999.90;999.90;;;;;;;16.41;92.06;99208.97;8326660;28;20099;-76
2022/09/10 11:20:45;;;;;;;1999.90;999.90;;;;;;;16.42;92.02;99215.91;8321734;28;20102;-76
2022/09/10 11:25:08;;;;;;;1999.90;999.90;;;;;;;16.43;92.24;99220.25;8322629;28;20041;-77
2022/09/10 11:29:27;;;;;;;1999.90;999.90;;;;;;;16.46;92.53;99207.91;8330262;28;20059;-77
2022/09/10 11:33:45;;;;;;;1999.90;999.90;;;;;;;16.53;92.57;99212.06;8320272;28;20117;-78
2022/09/10 11:38:25;;;;;;;1999.90;999.90;;;;;;;16.46;92.46;99217.53;8340156;28;20065;-77
2022/09/10 11:42:43;;;;;;;1999.90;999.90;;;;;;;16.51;92.47;99224.34;8320607;28;20037;-77
2022/09/10 11:46:56;;;;;;;1999.90;999.90;;;;;;;16.54;93.11;99223.41;8323988;28;20051;-77
2022/09/10 11:51:14;;;;;;;1999.90;999.90;;;;;;;16.42;92.92;99221.16;8319835;28;20138;-77
2022/09/10 11:55:16;;;;;;;1999.90;999.90;;;;;;;16.55;94.12;99225.13;8323369;28;20044;-77
2022/09/10 11:59:46;;;;;;;1999.90;999.90;;;;;;;16.75;93.94;99220.13;8324201;28;20037;-77
2022/09/10 12:04:16;;;;;;;1999.90;999.90;;;;;;;16.88;93.32;99210.97;8323740;28;20118;-77
2022/09/10 12:08:54;;;;;;;1999.90;999.90;;;;;;;17.06;92.58;99227.88;8316988;28;20048;-76
2022/09/10 12:13:16;;;;;;;1999.90;999.90;;;;;;;17.16;91.40;99220.53;8323418;28;20486;-76
2022/09/10 12:17:26;;;;;;;1999.90;999.90;;;;;;;17.27;89.85;99218.41;8334056;28;20118;-77
2022/09/10 12:21:41;;;;;;;1999.90;999.90;;;;;;;17.61;90.60;99206.72;8338011;28;20603;-77
2022/09/10 12:26:09;;;;;;;1999.90;999.90;;;;;;;17.68;88.70;99211.72;8323171;28;20064;-77
2022/09/10 12:30:35;;;;;;;1999.90;999.90;;;;;;;17.65;88.36;99208.31;8322280;28;20611;-77
2022/09/10 12:34:49;;;;;;;1999.90;999.90;;;;;;;17.67;88.70;99209.13;8332011;28;20058;-77
2022/09/10 12:39:34;;;;;;;1999.90;999.90;;;;;;;17.85;87.53;99205.84;8258025;28;20054;-77
2022/09/10 12:43:46;;;;;;;1999.90;999.90;;;;;;;17.97;86.91;99210.66;8278764;28;20065;-77
2022/09/10 12:47:55;;;;;;;1999.90;999.90;;;;;;;17.83;84.89;99198.94;8295021;28;20045;-78
2022/09/10 12:52:05;;;;;;;1999.90;999.90;;;;;;;17.77;85.88;99198.28;8279229;28;20119;-77
2022/09/10 12:56:38;;;;;;;1999.90;999.90;;;;;;;17.67;85.86;99202.09;8293022;28;20064;-77
2022/09/10 13:01:03;;;;;;;1999.90;999.90;;;;;;;17.65;86.07;99205.69;8288464;28;20057;-77
2022/09/10 13:05:24;;;;;;;1999.90;999.90;;;;;;;17.66;86.10;99200.38;8291867;28;20042;-77
2022/09/10 13:09:36;;;;;;;1999.90;999.90;;;;;;;17.71;86.61;99216.00;8306128;28;20115;-77
2022/09/10 13:13:47;;;;;;;1999.90;999.90;;;;;;;17.73;86.10;99208.91;8293837;28;20159;-77
2022/09/10 13:17:55;;;;;;;1999.90;999.90;;;;;;;17.87;85.98;99211.03;8306401;28;20049;-78
2022/09/10 13:22:30;;;;;;;1999.90;999.90;;;;;;;17.91;83.81;99213.50;8300794;28;20110;-78
2022/09/10 13:26:51;;;;;;;1999.90;999.90;;;;;;;17.81;82.82;99213.00;8305578;28;20568;-78
2022/09/10 13:31:13;;;;;;;1999.90;999.90;;;;;;;17.70;82.86;99214.28;8294523;28;20041;-78
2022/09/10 13:35:48;;;;;;;1999.90;999.90;;;;;;;17.53;83.51;99201.72;8308264;28;20156;-78
2022/09/10 13:40:24;;;;;;;1999.90;999.90;;;;;;;17.59;85.03;99204.13;8345064;28;20892;-77
2022/09/10 13:45:00;;;;;;;1999.90;999.90;;;;;;;17.70;85.41;99195.91;8328195;28;20390;-77
2022/09/10 13:49:11;;;;;;;1999.90;999.90;;;;;;;17.86;84.63;99194.44;8329881;28;20454;-78
2022/09/10 13:53:21;;;;;;;1999.90;999.90;;;;;;;18.04;83.80;99183.22;8327549;28;20036;-78
2022/09/10 13:57:41;;;;;;;1999.90;999.90;;;;;;;18.02;82.83;99174.56;8332902;28;20599;-78
2022/09/10 14:01:52;;;;;;;1999.90;999.90;;;;;;;17.89;82.73;99191.69;8342775;28;20051;-78
2022/09/10 14:06:06;;;;;;;1999.90;999.90;;;;;;;17.77;82.49;99186.88;8329531;28;20033;-78
2022/09/10 14:10:14;;;;;;;1999.90;999.90;;;;;;;17.68;83.85;99200.34;8345462;28;20098;-77
2022/09/10 14:14:28;;;;;;;1999.90;999.90;;;;;;;17.64;85.34;99202.22;8313683;28;20123;-77
2022/09/10 14:18:52;;;;;;;1999.90;999.90;;;;;;;17.53;86.20;99201.72;8324769;28;20378;-77
2022/09/10 14:23:04;;;;;;;1999.90;999.90;;;;;;;17.52;86.72;99194.75;8331092;28;20425;-77
2022/09/10 14:27:23;;;;;;;1999.90;999.90;;;;;;;17.70;87.49;99195.91;8322235;28;20071;-77
2022/09/10 14:31:25;;;;;;;1999.90;999.90;;;;;;;17.95;86.72;99199.31;8317452;28;20883;-77
2022/09/10 14:35:53;;;;;;;1999.90;999.90;;;;;;;18.16;85.58;99191.56;8317495;28;20120;-77
2022/09/10 14:40:17;;;;;;;1999.90;999.90;;;;;;;18.36;84.94;99196.91;8318538;28;20102;-77
2022/09/10 14:44:21;;;;;;;1999.90;999.90;;;;;;;18.44;82.98;99194.81;8330616;28;20066;-77
2022/09/10 14:48:37;;;;;;;1999.90;999.90;;;;;;;18.58;82.05;99192.50;8316024;28;20741;-76
2022/09/10 14:52:47;;;;;;;1999.90;999.90;;;;;;;18.62;79.94;99188.81;8318871;28;20730;-77
2022/09/10 14:56:48;;;;;;;1999.90;999.90;;;;;;;18.66;80.08;99189.59;8319067;28;20063;-76
2022/09/10 15:00:57;;;;;;;1999.90;999.90;;;;;;;18.58;80.45;99184.63;8317092;28;20045;-76
2022/09/10 15:04:58;;;;;;;1999.90;999.90;;;;;;;18.44;79.21;99192.19;8321171;28;20051;-76
2022/09/10 15:09:07;;;;;;;1999.90;999.90;;;;;;;18.41;79.64;99198.44;8318829;28;20479;-77
2022/09/10 15:13:17;;;;;;;1999.90;999.90;;;;;;;18.45;79.25;99190.41;8337758;28;20045;-77
2022/09/10 15:17:25;;;;;;;1999.90;999.90;;;;;;;18.61;79.30;99191.53;8324828;28;20102;-77
2022/09/10 15:21:27;;;;;;;1999.90;999.90;;;;;;;18.89;77.21;99192.16;8324222;28;20063;-77
2022/09/10 15:25:45;;;;;;;1999.90;999.90;;;;;;;18.92;76.83;99197.28;8333905;28;20041;-77
2022/09/10 15:29:46;;;;;;;1999.90;999.90;;;;;;;18.98;76.69;99191.75;8324804;28;20044;-77
2022/09/10 15:33:55;;;;;;;1999.90;999.90;;;;;;;19.04;74.67;99193.28;8326173;28;20049;-78
2022/09/10 15:38:10;;;;;;;1999.90;999.90;;;;;;;18.77;74.15;99191.78;8310911;28;20063;-77
2022/09/10 15:42:11;;;;;;;1999.90;999.90;;;;;;;18.69;76.03;99202.63;8307385;28;20099;-77
2022/09/10 15:46:23;;;;;;;1999.90;999.90;;;;;;;18.92;74.21;99194.66;8312991;28;20430;-76
2022/09/10 15:50:32;;;;;;;1999.90;999.90;;;;;;;19.26;73.52;99194.09;8291094;28;20037;-77
2022/09/10 15:54:33;;;;;;;1999.90;999.90;;;;;;;19.48;71.48;99193.16;8301794;28;20131;-77
2022/09/10 15:58:47;;;;;;;1999.90;999.90;;;;;;;19.77;71.69;99192.75;8314658;28;20298;-77
2022/09/10 16:02:51;;;;;;;1999.90;999.90;;;;;;;19.87;69.82;99190.53;8318189;28;20526;-77
2022/09/10 16:06:59;;;;;;;1999.90;999.90;;;;;;;19.92;69.28;99188.53;8309753;28;20041;-77
2022/09/10 16:11:10;;;;;;;1999.90;999.90;;;;;;;19.93;68.23;99187.66;8283143;28;20041;-77
2022/09/10 16:15:11;;;;;;;1999.90;999.90;;;;;;;20.13;67.50;99186.72;8315886;28;20564;-77
2022/09/10 16:19:13;;;;;;;1999.90;999.90;;;;;;;20.46;66.19;99193.06;8321004;28;20045;-78
2022/09/10 16:23:16;;;;;;;1999.90;999.90;;;;;;;21.23;63.45;99181.38;8322940;28;20076;-77
2022/09/10 16:27:18;;;;;;;1999.90;999.90;;;;;;;21.40;62.20;99187.50;8305056;28;20111;-78
2022/09/10 16:31:25;;;;;;;1999.90;999.90;;;;;;;20.59;64.29;99190.69;8311769;28;20053;-77
2022/09/10 16:35:27;;;;;;;1999.90;999.90;;;;;;;19.89;65.82;99196.59;8302894;28;20080;-77
2022/09/10 16:39:28;;;;;;;1999.90;999.90;;;;;;;19.46;67.94;99197.63;8296559;28;20186;-78
2022/09/10 16:43:36;;;;;;;1999.90;999.90;;;;;;;19.06;70.12;99198.50;8305886;28;20302;-77
2022/09/10 16:47:38;;;;;;;1999.90;999.90;;;;;;;18.79;71.25;99205.72;8296305;28;20062;-77
2022/09/10 16:51:47;;;;;;;1999.90;999.90;;;;;;;18.60;72.09;99211.69;8318803;28;20046;-77
2022/09/10 16:55:49;;;;;;;1999.90;999.90;;;;;;;18.46;73.38;99216.66;8320142;28;20049;-77
2022/09/10 16:59:51;;;;;;;1999.90;999.90;;;;;;;18.32;73.33;99230.34;8288928;28;20139;-78
2022/09/10 17:03:53;;;;;;;1999.90;999.90;;;;;;;18.27;74.44;99229.66;8325181;28;20042;-78
2022/09/10 17:07:54;;;;;;;1999.90;999.90;;;;;;;18.17;74.12;99232.69;8309819;28;20112;-77
2022/09/10 17:11:56;;;;;;;1999.90;999.90;;;;;;;18.08;74.85;99236.53;8326286;28;20453;-77
2022/09/10 17:16:26;;;;;;;1999.90;999.90;;;;;;;17.99;75.32;99245.63;8282450;28;20370;-77
2022/09/10 17:20:34;;;;;;;1999.90;999.90;;;;;;;17.90;76.08;99243.31;8305098;28;20041;-77
2022/09/10 17:24:36;;;;;;;1999.90;999.90;;;;;;;17.81;76.72;99260.28;8281199;28;20041;-76
2022/09/10 17:28:37;;;;;;;1999.90;999.90;;;;;;;17.73;78.11;99250.94;8299724;28;20318;-77
2022/09/10 17:32:39;;;;;;;1999.90;999.90;;;;;;;17.64;80.16;99256.50;8309715;28;20041;-76
2022/09/10 17:36:45;;;;;;;1999.90;999.90;;;;;;;17.53;81.48;99255.09;8301131;28;20063;-76
2022/09/10 17:40:53;;;;;;;1999.90;999.90;;;;;;;17.42;82.08;99254.63;8297327;28;20119;-76
2022/09/10 17:44:55;;;;;;;1999.90;999.90;;;;;;;17.37;82.77;99255.66;8314067;28;20767;-77
2022/09/10 17:48:58;;;;;;;1999.90;999.90;;;;;;;17.32;83.14;99258.47;8299508;28;20053;-77
2022/09/10 17:53:00;;;;;;;1999.90;999.90;;;;;;;17.26;83.71;99260.44;8286329;28;20398;-77
2022/09/10 17:57:09;;;;;;;1999.90;999.90;;;;;;;17.20;84.43;99261.47;8306513;28;20461;-77
2022/09/10 18:01:16;;;;;;;1999.90;999.90;;;;;;;17.17;85.56;99266.84;8281594;28;20108;-76
2022/09/10 18:05:24;;;;;;;1999.90;999.90;;;;;;;17.12;85.55;99266.16;8317182;28;20077;-77
2022/09/10 18:09:26;;;;;;;1999.90;999.90;;;;;;;17.09;86.24;99274.13;8299062;28;20049;-76
2022/09/10 18:13:28;;;;;;;1999.90;999.90;;;;;;;16.99;86.10;99284.03;8316239;28;20041;-76
2022/09/10 18:17:37;;;;;;;1999.90;999.90;;;;;;;16.91;87.51;99294.78;8290288;28;20318;-77
2022/09/10 18:21:40;;;;;;;1999.90;999.90;;;;;;;16.83;88.67;99307.28;8286833;28;20053;-76
2022/09/10 18:25:43;;;;;;;1999.90;999.90;;;;;;;16.76;89.64;99307.53;8284463;28;20038;-76
2022/09/10 18:29:50;;;;;;;1999.90;999.90;;;;;;;16.69;90.81;99316.47;8269505;28;20880;-76
2022/09/10 18:33:52;;;;;;;1999.90;999.90;;;;;;;16.58;90.79;99315.00;8270326;28;20045;-76
2022/09/10 18:37:56;;;;;;;1999.90;999.90;;;;;;;16.53;91.86;99321.31;8283431;28;20108;-76